createdAt,value
2023-01-20T00:01:29.011Z,44.30
2023-01-20T00:03:56.742Z,43.40
2023-01-20T00:06:24.870Z,40.20
2023-01-20T00:08:52.999Z,35.40
2023-01-20T00:11:21.137Z,38.42
2023-01-20T00:13:48.655Z,39.20
2023-01-20T00:16:15.857Z,43.17
2023-01-20T00:18:42.843Z,41.35
2023-01-20T00:21:13.907Z,40.58
2023-01-20T00:23:41.338Z,42.05
2023-01-20T00:26:12.193Z,43.08
2023-01-20T00:28:39.688Z,43.50
2023-01-20T00:31:26.539Z,44.72
2023-01-20T00:33:56.483Z,49.03
2023-01-20T00:36:24.285Z,53.35
2023-01-20T00:38:52.224Z,50.83
2023-01-20T00:41:19.934Z,54.50
2023-01-20T00:43:46.939Z,53.58
2023-01-20T00:46:14.528Z,52.88
2023-01-20T00:48:41.754Z,51.25
2023-01-20T00:51:09.879Z,50.47
2023-01-20T00:53:37.114Z,54.42
2023-01-20T00:56:04.849Z,52.70
2023-01-20T00:58:31.817Z,55.95
2023-01-20T01:00:59.191Z,48.30
2023-01-20T01:03:28.227Z,53.97
2023-01-20T01:05:55.495Z,52.17
2023-01-20T01:08:22.394Z,58.15
2023-01-20T01:10:49.353Z,56.72
2023-01-20T01:13:16.266Z,58.20
2023-01-20T01:15:49.582Z,60.65
2023-01-20T01:18:17.136Z,48.80
2023-01-20T01:20:44.923Z,40.38
2023-01-20T01:23:12.671Z,41.95
2023-01-20T01:25:39.842Z,39.85
2023-01-20T01:28:06.913Z,34.88
2023-01-20T01:30:34.168Z,38.67
2023-01-20T01:33:01.215Z,38.80
2023-01-20T01:35:28.156Z,38.22
2023-01-20T01:37:55.278Z,40.22
2023-01-20T01:40:22.201Z,40.17
2023-01-20T01:42:49.197Z,37.65
2023-01-20T01:45:22.483Z,47.72
2023-01-20T01:47:55.822Z,35.05
2023-01-20T01:50:38.732Z,33.50
2023-01-20T01:53:06.565Z,36.15
2023-01-20T01:55:37.932Z,36.30
2023-01-20T01:58:05.943Z,35.28
2023-01-20T02:00:33.077Z,34.58
2023-01-20T02:03:00.237Z,35.38
2023-01-20T02:05:28.770Z,37.95
2023-01-20T02:07:56.193Z,36.50
2023-01-20T02:10:23.195Z,36.28
2023-01-20T02:12:51.817Z,40.70
2023-01-20T02:15:23.192Z,46.05
2023-01-20T02:18:22.975Z,37.97
2023-01-20T02:21:17.893Z,29.55
2023-01-20T02:23:56.653Z,36.47
2023-01-20T02:26:43.134Z,33.67
2023-01-20T02:29:34.795Z,37.05
2023-01-20T02:32:26.592Z,35.55
2023-01-20T02:35:01.893Z,37.60
2023-01-20T02:37:30.837Z,35.95
2023-01-20T02:40:00.835Z,35.95
2023-01-20T02:42:42.682Z,35.70
2023-01-20T02:48:07.283Z,27.27
2023-01-20T02:50:55.957Z,33.88
2023-01-20T02:53:24.675Z,35.95
2023-01-20T02:55:52.399Z,40.63
2023-01-20T02:58:42.935Z,38.70
2023-01-20T03:01:40.058Z,32.63
2023-01-20T03:04:09.611Z,32.40
2023-01-20T03:06:38.974Z,37.03
2023-01-20T03:09:13.134Z,35.15
2023-01-20T03:11:45.575Z,37.58
2023-01-20T03:14:14.319Z,37.10
2023-01-20T03:16:41.901Z,36.40
2023-01-20T03:19:10.199Z,41.33
2023-01-20T03:21:37.245Z,37.38
2023-01-20T03:24:05.518Z,38.53
2023-01-20T03:26:34.593Z,38.65
2023-01-20T03:29:08.853Z,37.70
2023-01-20T03:31:35.905Z,40.75
2023-01-20T03:34:04.245Z,41.40
2023-01-20T03:36:32.077Z,41.72
2023-01-20T03:38:59.955Z,42.20
2023-01-20T03:41:27.197Z,37.90
2023-01-20T03:43:58.436Z,40.30
2023-01-20T03:46:37.218Z,43.38
2023-01-20T03:49:11.357Z,40.10
2023-01-20T03:51:52.236Z,40.85
2023-01-20T03:54:23.685Z,44.33
2023-01-20T03:57:04.394Z,41.22
2023-01-20T03:59:34.851Z,44.80
2023-01-20T04:02:07.181Z,43.30
2023-01-20T04:04:37.062Z,44.88
2023-01-20T04:07:09.286Z,42.80
2023-01-20T04:09:41.353Z,39.38
2023-01-20T04:12:09.053Z,43.63
2023-01-20T04:14:36.594Z,47.22
2023-01-20T04:17:04.559Z,41.35
2023-01-20T04:19:31.966Z,44.60
2023-01-20T04:22:27.037Z,46.58
2023-01-20T04:24:57.918Z,44.92
2023-01-20T04:27:24.816Z,47.97
2023-01-20T04:29:51.798Z,46.15
2023-01-20T04:32:18.799Z,46.85
2023-01-20T04:34:45.774Z,42.75
2023-01-20T04:37:12.779Z,46.90
2023-01-20T04:39:39.915Z,48.90
2023-01-20T04:42:06.993Z,47.45
2023-01-20T04:44:34.078Z,50.72
2023-01-20T04:47:00.987Z,48.28
2023-01-20T04:49:28.376Z,48.67
2023-01-20T04:51:55.236Z,46.55
2023-01-20T04:54:22.241Z,55.50
2023-01-20T04:56:49.657Z,52.33
2023-01-20T04:59:16.832Z,66.40
2023-01-20T05:01:43.829Z,62.95
2023-01-20T05:04:10.959Z,54.55
2023-01-20T05:06:38.014Z,55.88
2023-01-20T05:09:04.996Z,54.35
2023-01-20T05:11:31.814Z,53.88
2023-01-20T05:13:58.834Z,64.45
2023-01-20T05:16:26.258Z,60.72
2023-01-20T05:18:54.494Z,50.10
2023-01-20T05:21:21.534Z,58.28
2023-01-20T05:23:48.556Z,55.40
2023-01-20T05:26:15.540Z,60.78
2023-01-20T05:28:43.391Z,59.38
2023-01-20T05:31:10.531Z,52.20
2023-01-20T05:33:39.869Z,58.40
2023-01-20T05:36:07.711Z,54.38
2023-01-20T05:38:34.637Z,51.53
2023-01-20T05:41:02.759Z,61.40
2023-01-20T05:43:29.715Z,55.40
2023-01-20T05:45:56.719Z,58.40
2023-01-20T05:48:23.834Z,56.05
2023-01-20T05:50:50.786Z,51.72
2023-01-20T05:53:18.518Z,54.97
2023-01-20T05:55:45.655Z,57.53
2023-01-20T05:58:12.972Z,53.38
2023-01-20T06:00:39.818Z,62.28
2023-01-20T06:03:07.682Z,65.68
2023-01-20T06:05:34.569Z,66.88
2023-01-20T06:08:01.573Z,58.00
2023-01-20T06:10:28.716Z,50.13
2023-01-20T06:12:56.773Z,57.88
2023-01-20T06:15:24.424Z,56.30
2023-01-20T06:17:52.483Z,61.35
2023-01-20T06:20:19.778Z,142.68
2023-01-20T06:22:46.956Z,128.70
2023-01-20T06:25:14.476Z,69.22
2023-01-20T06:27:41.615Z,70.57
2023-01-20T06:30:09.461Z,67.65
2023-01-20T06:32:36.383Z,88.43
2023-01-20T06:35:03.504Z,63.50
2023-01-20T06:37:30.392Z,72.53
2023-01-20T06:39:57.321Z,79.40
2023-01-20T06:42:24.401Z,108.40
2023-01-20T06:44:51.318Z,72.60
2023-01-20T06:47:18.526Z,60.78
2023-01-20T06:49:45.561Z,62.15
2023-01-20T06:52:12.455Z,57.13
2023-01-20T06:54:39.391Z,62.10
2023-01-20T06:57:06.415Z,62.33
2023-01-20T06:59:33.361Z,63.70
2023-01-20T07:02:00.490Z,61.50
2023-01-20T07:04:27.580Z,68.18
2023-01-20T07:06:54.522Z,67.53
2023-01-20T07:09:21.605Z,67.07
2023-01-20T07:11:48.580Z,64.93
2023-01-20T07:14:15.597Z,74.35
2023-01-20T07:16:42.491Z,70.82
2023-01-20T07:19:09.523Z,64.35
2023-01-20T07:21:36.707Z,71.28
2023-01-20T07:24:04.086Z,68.70
2023-01-20T07:26:31.634Z,77.13
2023-01-20T07:28:59.512Z,75.47
2023-01-20T07:31:29.042Z,73.65
2023-01-20T07:33:56.844Z,73.05
2023-01-20T07:36:24.759Z,73.38
2023-01-20T07:38:52.272Z,72.28
2023-01-20T07:41:20.193Z,78.53
2023-01-20T07:43:51.579Z,76.30
2023-01-20T07:46:19.572Z,73.95
2023-01-20T07:48:46.766Z,73.95
2023-01-20T07:51:15.698Z,92.85
2023-01-20T07:53:47.099Z,102.40
2023-01-20T07:56:16.858Z,99.65
2023-01-20T07:58:45.429Z,90.80
2023-01-20T08:01:15.879Z,95.90
2023-01-20T08:03:44.029Z,76.95
2023-01-20T08:06:13.188Z,71.75
2023-01-20T08:08:40.362Z,69.28
2023-01-20T08:11:08.150Z,70.82
2023-01-20T08:13:35.139Z,69.78
2023-01-20T08:16:04.441Z,69.93
2023-01-20T08:18:32.845Z,64.22
2023-01-20T08:21:00.214Z,70.50
2023-01-20T08:23:27.363Z,74.07
2023-01-20T08:26:00.080Z,70.05
2023-01-20T08:28:27.870Z,58.92
2023-01-20T08:30:55.466Z,59.25
2023-01-20T08:33:22.553Z,65.30
2023-01-20T08:35:49.525Z,56.60
2023-01-20T08:38:16.539Z,60.35
2023-01-20T08:40:43.819Z,54.50
2023-01-20T08:43:10.916Z,60.28
2023-01-20T08:45:38.011Z,57.65
2023-01-20T08:48:05.116Z,57.17
2023-01-20T08:50:32.172Z,61.50
2023-01-20T08:52:59.190Z,61.80
2023-01-20T08:55:26.295Z,54.53
2023-01-20T08:57:53.272Z,56.88
2023-01-20T09:00:20.830Z,59.33
2023-01-20T09:02:47.868Z,58.03
2023-01-20T09:05:15.293Z,57.13
2023-01-20T09:07:42.512Z,66.10
2023-01-20T09:10:10.273Z,66.50
2023-01-20T09:12:37.920Z,67.78
2023-01-20T09:15:07.709Z,72.05
2023-01-20T09:17:36.315Z,71.15
2023-01-20T09:20:03.503Z,77.35
2023-01-20T09:22:30.498Z,73.40
2023-01-20T09:24:57.593Z,59.90
2023-01-20T09:27:25.548Z,60.67
2023-01-20T09:29:52.523Z,57.33
2023-01-20T09:32:19.562Z,55.72
2023-01-20T09:34:46.492Z,53.65
2023-01-20T09:37:32.110Z,60.38
2023-01-20T09:40:17.978Z,54.15
2023-01-20T09:43:12.349Z,59.10
2023-01-20T09:45:47.533Z,59.38
2023-01-20T09:49:02.989Z,59.92
2023-01-20T09:52:30.332Z,59.22
2023-01-20T09:55:02.457Z,347.60
2023-01-20T09:57:33.738Z,111.43
2023-01-20T10:00:14.560Z,64.03
2023-01-20T10:02:42.232Z,61.67
2023-01-20T10:05:13.788Z,51.90
2023-01-20T10:07:56.722Z,64.60
2023-01-20T10:10:43.172Z,70.03
2023-01-20T10:13:51.480Z,64.10
2023-01-20T10:16:32.209Z,61.13
2023-01-20T10:19:08.871Z,63.55
2023-01-20T10:21:41.888Z,70.28
2023-01-20T10:24:34.783Z,64.25
2023-01-20T10:27:03.581Z,77.38
2023-01-20T10:29:46.735Z,71.57
2023-01-20T10:32:36.797Z,70.40
2023-01-20T10:35:12.546Z,70.82
2023-01-20T10:37:39.613Z,66.47
2023-01-20T10:40:24.068Z,70.95
2023-01-20T10:42:55.175Z,71.07
2023-01-20T10:45:34.771Z,70.90
2023-01-20T10:48:40.552Z,72.13
2023-01-20T10:51:29.195Z,64.47
2023-01-20T10:54:10.814Z,66.72
2023-01-20T10:56:55.857Z,73.07
2023-01-20T10:59:47.251Z,69.88
2023-01-20T11:02:27.222Z,69.45
2023-01-20T11:05:02.757Z,79.93
2023-01-20T11:07:33.195Z,97.32
2023-01-20T11:10:25.302Z,69.28
2023-01-20T11:15:30.256Z,56.15
2023-01-20T11:18:15.807Z,61.75
2023-01-20T11:20:47.953Z,55.53
2023-01-20T11:23:24.253Z,57.42
2023-01-20T11:25:58.510Z,60.75
2023-01-20T11:28:26.088Z,62.20
2023-01-20T11:30:56.170Z,59.97
2023-01-20T11:33:28.412Z,65.45
2023-01-20T11:36:00.630Z,65.95
2023-01-20T11:38:30.370Z,68.45
2023-01-20T11:40:58.256Z,59.83
2023-01-20T11:43:30.971Z,64.63
2023-01-20T11:46:21.128Z,65.43
2023-01-20T11:48:48.622Z,68.00
2023-01-20T11:51:25.546Z,77.38
2023-01-20T11:54:07.799Z,62.88
2023-01-20T11:56:42.848Z,60.17
2023-01-20T11:59:27.451Z,57.75
2023-01-20T12:01:58.380Z,55.08
2023-01-20T12:04:48.690Z,59.23
2023-01-20T12:07:26.533Z,60.20
2023-01-20T12:10:05.720Z,58.55
2023-01-20T12:12:43.532Z,62.72
2023-01-20T12:15:17.370Z,55.28
2023-01-20T12:18:17.877Z,57.72
2023-01-20T12:20:55.080Z,58.97
2023-01-20T12:24:04.272Z,63.42
2023-01-20T12:26:35.021Z,64.03
2023-01-20T12:29:18.313Z,66.60
2023-01-20T12:31:49.261Z,71.50
2023-01-20T12:34:36.733Z,68.55
2023-01-20T12:37:17.259Z,67.82
2023-01-20T12:40:04.479Z,61.75
2023-01-20T12:42:56.717Z,63.50
2023-01-20T12:45:26.820Z,63.00
2023-01-20T12:48:15.711Z,61.67
2023-01-20T12:50:53.388Z,56.05
2023-01-20T12:53:39.251Z,49.85
2023-01-20T12:56:41.314Z,56.30
2023-01-20T12:59:33.211Z,52.58
2023-01-20T13:02:18.736Z,59.22
2023-01-20T13:05:12.351Z,56.35
2023-01-20T13:07:58.610Z,55.67
2023-01-20T13:10:49.388Z,58.67
2023-01-20T13:13:18.631Z,60.28
2023-01-20T13:15:53.713Z,61.80
2023-01-20T13:18:35.378Z,59.88
2023-01-20T13:21:02.615Z,59.15
2023-01-20T13:23:35.227Z,57.25
2023-01-20T13:26:04.319Z,59.35
2023-01-20T13:28:31.616Z,59.30
2023-01-20T13:31:00.448Z,54.72
2023-01-20T13:33:46.132Z,59.72
2023-01-20T13:36:17.471Z,54.80
2023-01-20T13:38:45.271Z,55.83
2023-01-20T13:41:12.551Z,56.60
2023-01-20T13:43:42.670Z,58.80
2023-01-20T13:46:29.539Z,49.70
2023-01-20T13:49:16.733Z,54.70
2023-01-20T13:51:45.326Z,64.88
2023-01-20T13:54:32.853Z,60.85
2023-01-20T13:57:24.071Z,59.83
2023-01-20T13:59:51.484Z,57.50
2023-01-20T14:02:20.016Z,57.90
2023-01-20T14:04:47.875Z,64.45
2023-01-20T14:07:24.671Z,67.15
2023-01-20T14:09:56.210Z,63.15
2023-01-20T14:12:23.353Z,64.28
2023-01-20T14:14:52.318Z,62.17
2023-01-20T14:17:21.350Z,60.10
2023-01-20T14:19:50.676Z,63.97
2023-01-20T14:22:25.118Z,57.83
2023-01-20T14:24:53.873Z,60.90
2023-01-20T14:27:31.999Z,60.42
2023-01-20T14:30:16.128Z,61.70
2023-01-20T14:32:43.375Z,66.00
2023-01-20T14:35:15.402Z,73.72
2023-01-20T14:37:42.847Z,72.25
2023-01-20T14:40:16.375Z,66.18
2023-01-20T14:42:55.782Z,61.63
2023-01-20T14:45:24.323Z,56.35
2023-01-20T14:47:51.556Z,58.45
2023-01-20T14:50:19.624Z,59.08
2023-01-20T14:52:47.501Z,60.72
2023-01-20T14:55:34.351Z,62.15
2023-01-20T14:58:21.596Z,74.53
2023-01-20T15:00:52.240Z,63.60
2023-01-20T15:03:19.234Z,69.35
2023-01-20T15:06:11.071Z,56.88
2023-01-20T15:08:37.998Z,57.65
2023-01-20T15:11:24.178Z,57.92
2023-01-20T15:14:05.081Z,60.05
2023-01-20T15:16:32.721Z,58.20
2023-01-20T15:19:20.765Z,51.40
2023-01-20T15:21:49.041Z,60.58
2023-01-20T15:24:32.660Z,60.13
2023-01-20T15:27:01.654Z,58.55
2023-01-20T15:29:33.391Z,54.08
2023-01-20T15:34:29.504Z,60.92
2023-01-20T15:36:56.517Z,59.25
2023-01-20T15:39:30.715Z,62.00
2023-01-20T15:41:58.175Z,64.00
2023-01-20T15:44:26.309Z,60.10
2023-01-20T15:46:57.005Z,58.58
2023-01-20T15:49:25.661Z,59.42
2023-01-20T15:51:53.113Z,57.33
2023-01-20T15:54:20.450Z,60.63
2023-01-20T15:56:47.590Z,60.47
2023-01-20T15:59:21.033Z,60.58
2023-01-20T16:01:51.536Z,63.35
2023-01-20T16:04:18.593Z,62.90
2023-01-20T16:06:48.059Z,66.05
2023-01-20T16:09:21.203Z,65.55
2023-01-20T16:11:48.393Z,61.58
2023-01-20T16:14:15.539Z,64.38
2023-01-20T16:16:42.702Z,60.25
2023-01-20T16:19:13.860Z,65.82
2023-01-20T16:21:41.978Z,69.18
2023-01-20T16:24:10.170Z,60.30
2023-01-20T16:26:37.195Z,63.88
2023-01-20T16:29:07.057Z,69.63
2023-01-20T16:31:34.127Z,68.63
2023-01-20T16:34:01.275Z,71.60
2023-01-20T16:36:28.464Z,60.10
2023-01-20T16:38:55.517Z,62.95
2023-01-20T16:41:27.519Z,61.03
2023-01-20T16:43:55.460Z,69.95
2023-01-20T16:46:31.703Z,63.63
2023-01-20T16:49:03.071Z,58.78
2023-01-20T16:51:31.040Z,65.47
2023-01-20T16:53:58.588Z,64.10
2023-01-20T16:56:28.383Z,62.78
2023-01-20T16:58:57.907Z,59.85
2023-01-20T17:01:25.926Z,60.50
2023-01-20T17:03:54.814Z,62.72
2023-01-20T17:06:24.211Z,59.80
2023-01-20T17:08:53.989Z,64.60
2023-01-20T17:11:29.834Z,69.18
2023-01-20T17:13:57.245Z,62.28
2023-01-20T17:16:26.483Z,64.15
2023-01-20T17:18:55.202Z,67.45
2023-01-20T17:21:23.601Z,62.45
2023-01-20T17:23:55.549Z,62.35
2023-01-20T17:26:23.273Z,63.13
2023-01-20T17:28:54.845Z,73.15
2023-01-20T17:31:22.780Z,66.28
2023-01-20T17:33:49.958Z,69.63
2023-01-20T17:36:17.544Z,66.68
2023-01-20T17:38:45.215Z,65.47
2023-01-20T17:41:13.613Z,66.57
2023-01-20T17:43:46.740Z,66.20
2023-01-20T17:46:19.324Z,65.13
2023-01-20T17:48:47.217Z,69.00
2023-01-20T17:51:17.007Z,71.32
2023-01-20T17:53:45.051Z,72.20
2023-01-20T17:56:14.060Z,74.72
2023-01-20T17:58:42.730Z,74.28
2023-01-20T18:01:22.372Z,66.65
2023-01-20T18:03:52.709Z,66.13
2023-01-20T18:06:21.758Z,62.30
2023-01-20T18:08:54.389Z,73.45
2023-01-20T18:11:23.402Z,72.60
2023-01-20T18:13:52.355Z,68.50
2023-01-20T18:16:22.711Z,76.38
2023-01-20T18:18:51.401Z,73.35
2023-01-20T18:21:21.719Z,72.72
2023-01-20T18:23:50.376Z,79.25
2023-01-20T18:26:21.486Z,80.45
2023-01-20T18:28:49.196Z,58.85
2023-01-20T18:31:19.793Z,81.95
2023-01-20T18:33:58.731Z,81.22
2023-01-20T18:36:31.503Z,77.68
2023-01-20T18:39:00.725Z,74.53
2023-01-20T18:41:29.675Z,78.38
2023-01-20T18:43:57.665Z,71.70
2023-01-20T18:46:26.191Z,70.60
2023-01-20T18:48:54.961Z,72.65
2023-01-20T18:51:24.334Z,71.47
2023-01-20T18:53:56.511Z,73.53
2023-01-20T18:56:24.283Z,74.32
2023-01-20T18:58:51.674Z,75.38
2023-01-20T19:01:25.194Z,67.32
2023-01-20T19:03:52.790Z,68.85
2023-01-20T19:06:22.274Z,63.83
2023-01-20T19:08:49.846Z,66.75
2023-01-20T19:11:23.539Z,61.65
2023-01-20T19:13:53.402Z,63.53
2023-01-20T19:16:22.817Z,63.17
2023-01-20T19:18:54.931Z,59.83
2023-01-20T19:21:23.306Z,63.90
2023-01-20T19:23:51.672Z,66.50
2023-01-20T19:26:19.738Z,60.72
2023-01-20T19:28:48.773Z,64.82
2023-01-20T19:31:18.236Z,65.43
2023-01-20T19:33:46.477Z,68.20
2023-01-20T19:36:15.369Z,62.83
2023-01-20T19:38:42.884Z,64.65
2023-01-20T19:41:12.045Z,67.80
2023-01-20T19:43:39.745Z,61.65
2023-01-20T19:46:12.339Z,61.90
2023-01-20T19:48:39.812Z,68.97
2023-01-20T19:51:12.336Z,70.78
2023-01-20T19:53:40.154Z,78.00
2023-01-20T19:56:12.045Z,67.38
2023-01-20T19:58:40.092Z,71.85
2023-01-20T20:01:07.846Z,76.30
2023-01-20T20:03:35.757Z,74.68
2023-01-20T20:06:04.005Z,75.90
2023-01-20T20:08:31.153Z,80.15
2023-01-20T20:10:58.339Z,77.00
2023-01-20T20:13:25.455Z,74.93
2023-01-20T20:16:02.081Z,74.80
2023-01-20T20:18:32.562Z,83.53
2023-01-20T20:20:59.625Z,86.53
2023-01-20T20:23:27.812Z,84.03
2023-01-20T20:25:58.563Z,82.53
2023-01-20T20:28:27.125Z,79.15
2023-01-20T20:30:57.912Z,72.60
2023-01-20T20:33:25.284Z,73.23
2023-01-20T20:35:52.969Z,65.30
2023-01-20T20:38:20.131Z,72.20
2023-01-20T20:40:47.347Z,70.70
2023-01-20T20:43:15.176Z,76.13
2023-01-20T20:45:42.384Z,76.55
2023-01-20T20:48:11.157Z,84.32
2023-01-20T20:50:38.313Z,76.30
2023-01-20T20:53:05.589Z,78.60
2023-01-20T20:55:33.428Z,73.70
2023-01-20T20:58:03.039Z,82.35
2023-01-20T21:00:31.772Z,85.72
2023-01-20T21:02:58.833Z,110.35
2023-01-20T21:05:26.020Z,104.28
2023-01-20T21:07:52.959Z,123.45
2023-01-20T21:10:21.359Z,103.18
2023-01-20T21:12:48.332Z,82.78
2023-01-20T21:15:15.379Z,73.50
2023-01-20T21:17:42.363Z,80.38
2023-01-20T21:20:10.274Z,82.68
2023-01-20T21:22:37.181Z,91.28
2023-01-20T21:25:04.555Z,84.97
2023-01-20T21:27:32.918Z,87.15
2023-01-20T21:30:00.169Z,85.75
2023-01-20T21:32:27.291Z,83.78
2023-01-20T21:34:55.299Z,89.63
2023-01-20T21:37:22.517Z,85.13
2023-01-20T21:39:49.576Z,78.28
2023-01-20T21:42:16.420Z,91.53
2023-01-20T21:44:43.362Z,89.03
2023-01-20T21:47:12.981Z,88.85
2023-01-20T21:49:58.434Z,90.38
2023-01-20T21:53:04.061Z,87.00
2023-01-20T21:55:31.078Z,79.10
2023-01-20T21:57:57.977Z,83.68
2023-01-20T22:00:25.647Z,85.60
2023-01-20T22:02:52.533Z,87.53
2023-01-20T22:05:20.256Z,95.78
2023-01-20T22:07:48.465Z,93.43
2023-01-20T22:10:15.715Z,82.43
2023-01-20T22:12:42.759Z,87.65
2023-01-20T22:15:10.190Z,89.22
2023-01-20T22:17:37.310Z,92.00
2023-01-20T22:20:05.452Z,93.85
2023-01-20T22:22:32.475Z,87.38
2023-01-20T22:24:59.393Z,85.45
2023-01-20T22:27:26.320Z,86.35
2023-01-20T22:29:53.212Z,87.10
2023-01-20T22:32:20.327Z,82.50
2023-01-20T22:34:47.292Z,79.72
2023-01-20T22:37:14.315Z,77.43
2023-01-20T22:39:41.180Z,86.82
2023-01-20T22:42:08.860Z,79.45
2023-01-20T22:44:35.815Z,81.15
2023-01-20T22:47:05.230Z,81.22
2023-01-20T22:49:32.215Z,75.90
2023-01-20T22:51:59.159Z,74.55
2023-01-20T22:54:26.162Z,72.60
2023-01-20T22:56:53.040Z,75.13
2023-01-20T22:59:19.986Z,77.32
2023-01-20T23:01:46.880Z,78.00
2023-01-20T23:04:14.918Z,73.85
2023-01-20T23:06:41.862Z,73.38
2023-01-20T23:09:11.695Z,77.15
2023-01-20T23:11:40.345Z,78.32
2023-01-20T23:14:10.824Z,78.05
2023-01-20T23:16:37.909Z,76.10
2023-01-20T23:19:05.205Z,79.30
2023-01-20T23:21:32.530Z,72.85
2023-01-20T23:23:59.480Z,80.70
2023-01-20T23:26:29.242Z,79.82
2023-01-20T23:28:56.618Z,75.15
2023-01-20T23:31:25.529Z,80.15
2023-01-20T23:33:54.014Z,81.28
2023-01-20T23:36:24.533Z,85.57
2023-01-20T23:38:54.360Z,92.25
2023-01-20T23:41:21.750Z,86.80
2023-01-20T23:43:49.061Z,86.32
2023-01-20T23:46:15.997Z,82.30
2023-01-20T23:48:46.146Z,81.65
2023-01-20T23:51:13.632Z,91.80
2023-01-20T23:53:41.415Z,86.38
2023-01-20T23:56:13.256Z,84.82
